EHEH/EIN METAR and TAF weather

Enter ICAO airport designator
Station Type Date Time Source
EHEH METAR 2021/03/09 09:25 UTC NOAA

EHEH 090925Z AUTO 26006KT 220V290 2700 R21/2100D BR SCT003 BKN005 BKN007 06/06 Q1017 REDZ YLO BECMG 4500 BR SCT005 BKN008 BKN015


Station Type Date Time Source
EHEH Decoded METAR 2021/03/09 09:25 UTC NOAA

Eindhoven, Netherlands (EHEH) 51-27N 005-25E 28M
Mar 09, 2021 - 04:25 AM EST / 2021.03.09 0925 UTC
Wind: from the W (260 degrees) at 7 MPH (6 KT) (direction variable):0
Visibility: 1 mile(s):0
Sky conditions: mostly cloudy
Weather: mist
Temperature: 42 F (6 C)
Dew Point: 42 F (6 C)
Relative Humidity: 100%
Pressure (altimeter): 30.03 in. Hg (1017 hPa)
ob: EHEH 090925Z AUTO 26006KT 220V290 2700 R21/2100D BR SCT003 BKN005 BKN007 06/06 Q1017 REDZ YLO BECMG 4500 BR SCT005 BKN008 BKN015
cycle: 9

Station Type Date Time Source
EHEH TAF 2021/03/09 06:07 UTC NOAA

TAF EHEH 090522Z 0906/1012 21010KT 4000 RA FEW007 SCT008 BKN010
TEMPO 0903/0910 3000 RADZ FEW004 SCT005 BKN008 PROB40
TEMPO 0905/0910 2000 DZRA BR SCT003 OVC005
BECMG 0910/0913 31008KT FEW015 SCT020 BKN025 PROB30
TEMPO 0910/0915 SCT006 SCT015
BECMG 0919/0922 VRB02KT 3000 BR PROB30 1002/1006 0800 FG
BECMG 1005/1008 20005KT 9999 NSW
BECMG 1010/1012 20013G23KT

Example: see airport list